Terminal Aerodrome Forecast
Issued by NWS

Home | Current Version | Previous Version | Text Only | Print | Product List | Glossary On
Versions: 1 2 3 4 5 6 7 8 9 10 11 12 13 14 15 16 17 18 19 20 21 22 23 24 25 26
000
FTUS43 KSGF 172300
TAFJLN
TAF
KJLN 172334Z 1800/1824 18010KT P6SM VCTS SCT070CB BKN150
     FM180200 VRB05KT P6SM SCT070
     FM180600 VRB04KT 6SM BR SCT010 OVC100 PROB30 1809/1815 6SM
      -TSRA BKN050CB
     FM181500 10008KT P6SM SCT015 OVC050
     FM181800 10008KT P6SM SCT030 BKN250=

USA.gov is the U.S. government's official web portal to all federal, state and local government web resources and services.